Terminal Aerodrome Forecast
Issued by NWS Atlanta, GA

Home | Current Version | Previous Version | Text Only | Print | Product List | Glossary On
Versions: 1 2 3 4 5 6 7 8 9 10 11 12 13 14 15 16 17 18 19 20 21 22 23 24 25 26 27 28 29 30 31 32 33 34 35 36 37 38 39
000
FTUS42 KFFC 300943 AAC
TAFATL
TAF AMD
KATL 300943Z 3010/3112 22010KT P6SM BKN012 OVC025
     FM301100 22010KT 5SM -SHRA SCT008 OVC012
      TEMPO 3011/3013 3SM TSRA BKN008CB
     FM301300 24010KT 6SM -SHRA OVC008
     FM301500 28007KT P6SM BKN012
     FM301700 31010G15KT P6SM BKN035
     FM301900 32010G15KT P6SM SCT035
     FM302200 31009KT P6SM SKC=

USA.gov is the U.S. government's official web portal to all federal, state and local government web resources and services.